sensor_id;sensor_type;location;lat;lon;timestamp;P1;durP1;ratioP1;P2;durP2;ratioP2
10947;SDS011;5526;42.070;24.752;2023-03-01T00:00:17;5.30;;;4.90;;
10947;SDS011;5526;42.070;24.752;2023-03-01T00:02:45;5.95;;;5.45;;
10947;SDS011;5526;42.070;24.752;2023-03-01T00:05:12;5.20;;;4.80;;
10947;SDS011;5526;42.070;24.752;2023-03-01T00:07:39;5.35;;;4.95;;
10947;SDS011;5526;42.070;24.752;2023-03-01T00:10:06;5.10;;;4.72;;
10947;SDS011;5526;42.070;24.752;2023-03-01T00:12:35;4.28;;;3.97;;
10947;SDS011;5526;42.070;24.752;2023-03-01T00:15:02;4.05;;;3.75;;
10947;SDS011;5526;42.070;24.752;2023-03-01T00:17:30;4.05;;;3.75;;
10947;SDS011;5526;42.070;24.752;2023-03-01T00:19:57;4.32;;;3.88;;
10947;SDS011;5526;42.070;24.752;2023-03-01T00:22:24;4.57;;;4.28;;
10947;SDS011;5526;42.070;24.752;2023-03-01T00:24:53;5.03;;;4.63;;
10947;SDS011;5526;42.070;24.752;2023-03-01T00:27:20;5.53;;;5.13;;
10947;SDS011;5526;42.070;24.752;2023-03-01T00:29:49;5.28;;;4.88;;
10947;SDS011;5526;42.070;24.752;2023-03-01T00:32:16;5.28;;;4.88;;
10947;SDS011;5526;42.070;24.752;2023-03-01T00:34:43;5.15;;;4.75;;
10947;SDS011;5526;42.070;24.752;2023-03-01T00:37:19;5.40;;;4.70;;
10947;SDS011;5526;42.070;24.752;2023-03-01T00:39:46;5.32;;;4.93;;
10947;SDS011;5526;42.070;24.752;2023-03-01T00:42:13;4.75;;;4.40;;
10947;SDS011;5526;42.070;24.752;2023-03-01T00:44:40;4.20;;;3.90;;
10947;SDS011;5526;42.070;24.752;2023-03-01T00:47:08;4.43;;;4.03;;
10947;SDS011;5526;42.070;24.752;2023-03-01T00:49:35;4.18;;;3.88;;
10947;SDS011;5526;42.070;24.752;2023-03-01T00:52:02;4.15;;;3.85;;
10947;SDS011;5526;42.070;24.752;2023-03-01T00:54:29;4.03;;;3.72;;
10947;SDS011;5526;42.070;24.752;2023-03-01T00:56:57;4.28;;;3.97;;
10947;SDS011;5526;42.070;24.752;2023-03-01T00:59:24;3.60;;;3.40;;
10947;SDS011;5526;42.070;24.752;2023-03-01T01:01:51;4.53;;;4.22;;
10947;SDS011;5526;42.070;24.752;2023-03-01T01:04:19;4.65;;;4.25;;
10947;SDS011;5526;42.070;24.752;2023-03-01T01:06:46;4.43;;;4.13;;
10947;SDS011;5526;42.070;24.752;2023-03-01T01:09:14;4.03;;;3.83;;
10947;SDS011;5526;42.070;24.752;2023-03-01T01:11:43;4.28;;;3.97;;
10947;SDS011;5526;42.070;24.752;2023-03-01T01:14:10;4.55;;;4.25;;
10947;SDS011;5526;42.070;24.752;2023-03-01T01:16:38;5.15;;;4.75;;
10947;SDS011;5526;42.070;24.752;2023-03-01T01:19:05;4.18;;;3.90;;
10947;SDS011;5526;42.070;24.752;2023-03-01T01:21:33;4.30;;;3.97;;
10947;SDS011;5526;42.070;24.752;2023-03-01T01:24:02;4.65;;;4.35;;
10947;SDS011;5526;42.070;24.752;2023-03-01T01:26:30;4.53;;;4.22;;
10947;SDS011;5526;42.070;24.752;2023-03-01T01:28:59;4.97;;;4.65;;
10947;SDS011;5526;42.070;24.752;2023-03-01T01:31:29;5.63;;;5.22;;
10947;SDS011;5526;42.070;24.752;2023-03-01T01:33:58;5.60;;;5.20;;
10947;SDS011;5526;42.070;24.752;2023-03-01T01:36:26;6.10;;;5.70;;
10947;SDS011;5526;42.070;24.752;2023-03-01T01:38:54;6.47;;;5.97;;
10947;SDS011;5526;42.070;24.752;2023-03-01T01:41:21;6.55;;;6.05;;
10947;SDS011;5526;42.070;24.752;2023-03-01T01:44:08;7.38;;;6.78;;
10947;SDS011;5526;42.070;24.752;2023-03-01T01:46:38;7.40;;;6.72;;
10947;SDS011;5526;42.070;24.752;2023-03-01T01:49:10;7.25;;;6.65;;
10947;SDS011;5526;42.070;24.752;2023-03-01T01:51:46;7.93;;;7.32;;
10947;SDS011;5526;42.070;24.752;2023-03-01T01:54:18;7.97;;;7.28;;
10947;SDS011;5526;42.070;24.752;2023-03-01T01:56:48;8.02;;;7.32;;
10947;SDS011;5526;42.070;24.752;2023-03-01T01:59:19;7.20;;;6.60;;
10947;SDS011;5526;42.070;24.752;2023-03-01T02:01:49;7.15;;;6.55;;
10947;SDS011;5526;42.070;24.752;2023-03-01T02:04:16;6.18;;;5.68;;
10947;SDS011;5526;42.070;24.752;2023-03-01T02:06:45;5.97;;;5.47;;
10947;SDS011;5526;42.070;24.752;2023-03-01T02:09:17;5.38;;;4.97;;
10947;SDS011;5526;42.070;24.752;2023-03-01T02:11:46;5.72;;;5.15;;
10947;SDS011;5526;42.070;24.752;2023-03-01T02:14:15;5.65;;;5.25;;
10947;SDS011;5526;42.070;24.752;2023-03-01T02:16:43;4.80;;;4.40;;
10947;SDS011;5526;42.070;24.752;2023-03-01T02:19:11;5.50;;;5.07;;
10947;SDS011;5526;42.070;24.752;2023-03-01T02:21:46;5.45;;;5.05;;
10947;SDS011;5526;42.070;24.752;2023-03-01T02:24:26;5.53;;;5.13;;
10947;SDS011;5526;42.070;24.752;2023-03-01T02:26:59;5.50;;;5.10;;
10947;SDS011;5526;42.070;24.752;2023-03-01T02:29:28;5.28;;;4.88;;
10947;SDS011;5526;42.070;24.752;2023-03-01T02:31:56;5.30;;;4.90;;
10947;SDS011;5526;42.070;24.752;2023-03-01T02:34:26;5.28;;;4.88;;
10947;SDS011;5526;42.070;24.752;2023-03-01T02:36:55;5.30;;;4.90;;
10947;SDS011;5526;42.070;24.752;2023-03-01T02:39:26;5.85;;;5.43;;
10947;SDS011;5526;42.070;24.752;2023-03-01T02:41:56;5.22;;;4.82;;
10947;SDS011;5526;42.070;24.752;2023-03-01T02:44:25;5.63;;;5.22;;
10947;SDS011;5526;42.070;24.752;2023-03-01T02:46:54;5.30;;;4.90;;
10947;SDS011;5526;42.070;24.752;2023-03-01T02:49:24;5.75;;;5.30;;
10947;SDS011;5526;42.070;24.752;2023-03-01T02:52:01;5.65;;;5.20;;
10947;SDS011;5526;42.070;24.752;2023-03-01T02:54:39;5.60;;;5.20;;
10947;SDS011;5526;42.070;24.752;2023-03-01T02:57:12;6.22;;;5.72;;
10947;SDS011;5526;42.070;24.752;2023-03-01T02:59:40;6.55;;;6.05;;
10947;SDS011;5526;42.070;24.752;2023-03-01T03:02:19;6.18;;;5.68;;
10947;SDS011;5526;42.070;24.752;2023-03-01T03:05:02;6.35;;;5.68;;
10947;SDS011;5526;42.070;24.752;2023-03-01T03:07:31;6.15;;;5.65;;
10947;SDS011;5526;42.070;24.752;2023-03-01T03:09:59;6.60;;;6.10;;
10947;SDS011;5526;42.070;24.752;2023-03-01T03:12:26;6.22;;;5.72;;
10947;SDS011;5526;42.070;24.752;2023-03-01T03:14:53;6.60;;;6.10;;
10947;SDS011;5526;42.070;24.752;2023-03-01T03:17:22;6.93;;;6.32;;
10947;SDS011;5526;42.070;24.752;2023-03-01T03:19:49;6.90;;;6.40;;
10947;SDS011;5526;42.070;24.752;2023-03-01T03:22:17;6.97;;;6.38;;
10947;SDS011;5526;42.070;24.752;2023-03-01T03:24:44;6.85;;;6.25;;
10947;SDS011;5526;42.070;24.752;2023-03-01T03:27:11;6.85;;;6.25;;
10947;SDS011;5526;42.070;24.752;2023-03-01T03:29:38;6.82;;;6.13;;
10947;SDS011;5526;42.070;24.752;2023-03-01T03:32:05;7.03;;;6.43;;
10947;SDS011;5526;42.070;24.752;2023-03-01T03:34:33;7.18;;;6.57;;
10947;SDS011;5526;42.070;24.752;2023-03-01T03:37:00;7.15;;;6.55;;
10947;SDS011;5526;42.070;24.752;2023-03-01T03:39:27;7.10;;;6.50;;
10947;SDS011;5526;42.070;24.752;2023-03-01T03:42:00;7.50;;;6.80;;
10947;SDS011;5526;42.070;24.752;2023-03-01T03:44:48;6.65;;;5.95;;
10947;SDS011;5526;42.070;24.752;2023-03-01T03:50:20;5.85;;;5.38;;
10947;SDS011;5526;42.070;24.752;2023-03-01T03:52:46;5.70;;;5.20;;
10947;SDS011;5526;42.070;24.752;2023-03-01T03:55:13;6.05;;;5.55;;
10947;SDS011;5526;42.070;24.752;2023-03-01T04:00:32;7.55;;;6.85;;
10947;SDS011;5526;42.070;24.752;2023-03-01T04:03:00;7.10;;;6.50;;
10947;SDS011;5526;42.070;24.752;2023-03-01T04:05:28;6.43;;;5.82;;
10947;SDS011;5526;42.070;24.752;2023-03-01T04:07:56;6.60;;;6.00;;
10947;SDS011;5526;42.070;24.752;2023-03-01T04:10:33;7.90;;;7.10;;
10947;SDS011;5526;42.070;24.752;2023-03-01T04:13:01;7.32;;;6.63;;
10947;SDS011;5526;42.070;24.752;2023-03-01T04:15:32;5.60;;;5.10;;
10947;SDS011;5526;42.070;24.752;2023-03-01T04:17:59;5.30;;;4.90;;
10947;SDS011;5526;42.070;24.752;2023-03-01T04:20:29;5.70;;;5.20;;
10947;SDS011;5526;42.070;24.752;2023-03-01T04:23:00;5.10;;;4.70;;
10947;SDS011;5526;42.070;24.752;2023-03-01T04:25:36;5.88;;;4.97;;
10947;SDS011;5526;42.070;24.752;2023-03-01T04:28:05;6.13;;;5.03;;
10947;SDS011;5526;42.070;24.752;2023-03-01T04:30:32;5.45;;;4.95;;
10947;SDS011;5526;42.070;24.752;2023-03-01T04:33:01;5.65;;;5.15;;
10947;SDS011;5526;42.070;24.752;2023-03-01T04:35:31;5.47;;;4.97;;
10947;SDS011;5526;42.070;24.752;2023-03-01T04:37:59;5.55;;;5.10;;
10947;SDS011;5526;42.070;24.752;2023-03-01T04:40:26;6.00;;;5.40;;
10947;SDS011;5526;42.070;24.752;2023-03-01T04:42:53;5.88;;;5.38;;
10947;SDS011;5526;42.070;24.752;2023-03-01T04:45:20;5.90;;;5.40;;
10947;SDS011;5526;42.070;24.752;2023-03-01T04:47:47;5.78;;;5.28;;
10947;SDS011;5526;42.070;24.752;2023-03-01T04:50:17;6.30;;;5.80;;
10947;SDS011;5526;42.070;24.752;2023-03-01T04:52:48;6.15;;;5.28;;
10947;SDS011;5526;42.070;24.752;2023-03-01T04:55:15;5.63;;;5.13;;
10947;SDS011;5526;42.070;24.752;2023-03-01T04:57:42;6.03;;;5.53;;
10947;SDS011;5526;42.070;24.752;2023-03-01T05:00:10;6.03;;;5.53;;
10947;SDS011;5526;42.070;24.752;2023-03-01T05:02:47;5.43;;;5.03;;
10947;SDS011;5526;42.070;24.752;2023-03-01T05:05:23;6.47;;;5.90;;
10947;SDS011;5526;42.070;24.752;2023-03-01T05:07:55;6.35;;;5.85;;
10947;SDS011;5526;42.070;24.752;2023-03-01T05:10:25;6.63;;;6.03;;
10947;SDS011;5526;42.070;24.752;2023-03-01T05:12:55;7.03;;;6.43;;
10947;SDS011;5526;42.070;24.752;2023-03-01T05:15:23;7.18;;;6.47;;
10947;SDS011;5526;42.070;24.752;2023-03-01T05:17:52;6.93;;;6.32;;
10947;SDS011;5526;42.070;24.752;2023-03-01T05:20:19;6.93;;;6.32;;
10947;SDS011;5526;42.070;24.752;2023-03-01T05:22:48;7.63;;;6.93;;
10947;SDS011;5526;42.070;24.752;2023-03-01T05:25:17;7.93;;;7.13;;
10947;SDS011;5526;42.070;24.752;2023-03-01T05:27:46;8.13;;;7.40;;
10947;SDS011;5526;42.070;24.752;2023-03-01T05:30:13;8.82;;;7.95;;
10947;SDS011;5526;42.070;24.752;2023-03-01T05:32:42;8.55;;;7.70;;
10947;SDS011;5526;42.070;24.752;2023-03-01T05:35:10;8.95;;;8.15;;
10947;SDS011;5526;42.070;24.752;2023-03-01T05:37:40;10.05;;;9.05;;
10947;SDS011;5526;42.070;24.752;2023-03-01T05:40:09;9.85;;;8.95;;
10947;SDS011;5526;42.070;24.752;2023-03-01T05:42:45;10.30;;;9.30;;
10947;SDS011;5526;42.070;24.752;2023-03-01T05:45:14;10.60;;;9.63;;
10947;SDS011;5526;42.070;24.752;2023-03-01T05:47:42;10.32;;;9.32;;
10947;SDS011;5526;42.070;24.752;2023-03-01T05:50:11;10.02;;;9.02;;
10947;SDS011;5526;42.070;24.752;2023-03-01T05:52:39;10.20;;;9.20;;
10947;SDS011;5526;42.070;24.752;2023-03-01T05:55:06;10.00;;;9.02;;
10947;SDS011;5526;42.070;24.752;2023-03-01T05:57:34;11.50;;;9.45;;
10947;SDS011;5526;42.070;24.752;2023-03-01T06:00:02;10.52;;;9.52;;
10947;SDS011;5526;42.070;24.752;2023-03-01T06:02:31;11.00;;;9.90;;
10947;SDS011;5526;42.070;24.752;2023-03-01T06:04:58;11.45;;;10.15;;
10947;SDS011;5526;42.070;24.752;2023-03-01T06:07:25;11.80;;;10.10;;
10947;SDS011;5526;42.070;24.752;2023-03-01T06:09:52;11.73;;;10.32;;
10947;SDS011;5526;42.070;24.752;2023-03-01T06:12:19;11.05;;;9.88;;
10947;SDS011;5526;42.070;24.752;2023-03-01T06:14:46;9.50;;;8.60;;
10947;SDS011;5526;42.070;24.752;2023-03-01T06:17:15;9.00;;;8.18;;
10947;SDS011;5526;42.070;24.752;2023-03-01T06:19:42;9.50;;;8.60;;
10947;SDS011;5526;42.070;24.752;2023-03-01T06:22:09;10.05;;;9.00;;
10947;SDS011;5526;42.070;24.752;2023-03-01T06:24:36;10.43;;;9.45;;
10947;SDS011;5526;42.070;24.752;2023-03-01T06:27:03;9.73;;;8.82;;
10947;SDS011;5526;42.070;24.752;2023-03-01T06:29:30;9.75;;;8.77;;
10947;SDS011;5526;42.070;24.752;2023-03-01T06:31:57;10.73;;;9.63;;
10947;SDS011;5526;42.070;24.752;2023-03-01T06:34:26;10.82;;;9.82;;
10947;SDS011;5526;42.070;24.752;2023-03-01T06:36:53;9.15;;;8.25;;
10947;SDS011;5526;42.070;24.752;2023-03-01T06:39:20;9.63;;;8.73;;
10947;SDS011;5526;42.070;24.752;2023-03-01T06:41:47;9.82;;;8.82;;
10947;SDS011;5526;42.070;24.752;2023-03-01T06:44:14;8.10;;;7.30;;
10947;SDS011;5526;42.070;24.752;2023-03-01T06:46:41;7.70;;;7.00;;
10947;SDS011;5526;42.070;24.752;2023-03-01T06:49:08;7.10;;;6.50;;
10947;SDS011;5526;42.070;24.752;2023-03-01T06:51:37;7.40;;;6.60;;
10947;SDS011;5526;42.070;24.752;2023-03-01T06:54:04;7.00;;;6.30;;
10947;SDS011;5526;42.070;24.752;2023-03-01T06:56:31;6.35;;;5.80;;
10947;SDS011;5526;42.070;24.752;2023-03-01T06:58:58;7.18;;;6.47;;
10947;SDS011;5526;42.070;24.752;2023-03-01T07:01:25;13.18;;;11.98;;
10947;SDS011;5526;42.070;24.752;2023-03-01T07:03:52;8.02;;;6.78;;
10947;SDS011;5526;42.070;24.752;2023-03-01T07:06:19;8.77;;;8.00;;
10947;SDS011;5526;42.070;24.752;2023-03-01T07:08:48;8.98;;;8.02;;
10947;SDS011;5526;42.070;24.752;2023-03-01T07:11:15;9.00;;;8.20;;
10947;SDS011;5526;42.070;24.752;2023-03-01T07:13:43;10.27;;;9.18;;
10947;SDS011;5526;42.070;24.752;2023-03-01T07:16:09;7.93;;;7.20;;
10947;SDS011;5526;42.070;24.752;2023-03-01T07:18:36;7.88;;;7.07;;
10947;SDS011;5526;42.070;24.752;2023-03-01T07:21:04;9.95;;;8.95;;
10947;SDS011;5526;42.070;24.752;2023-03-01T07:23:32;7.75;;;6.55;;
10947;SDS011;5526;42.070;24.752;2023-03-01T07:26:00;6.70;;;6.03;;
10947;SDS011;5526;42.070;24.752;2023-03-01T07:28:28;6.65;;;6.05;;
10947;SDS011;5526;42.070;24.752;2023-03-01T07:30:58;5.97;;;5.50;;
10947;SDS011;5526;42.070;24.752;2023-03-01T07:33:27;5.18;;;4.78;;
10947;SDS011;5526;42.070;24.752;2023-03-01T07:35:57;5.93;;;5.38;;
10947;SDS011;5526;42.070;24.752;2023-03-01T07:38:24;4.97;;;4.30;;
10947;SDS011;5526;42.070;24.752;2023-03-01T07:40:52;4.85;;;4.45;;
10947;SDS011;5526;42.070;24.752;2023-03-01T07:43:20;4.70;;;4.28;;
10947;SDS011;5526;42.070;24.752;2023-03-01T07:45:47;4.40;;;4.00;;
10947;SDS011;5526;42.070;24.752;2023-03-01T07:48:14;5.78;;;4.90;;
10947;SDS011;5526;42.070;24.752;2023-03-01T07:50:41;5.68;;;5.28;;
10947;SDS011;5526;42.070;24.752;2023-03-01T07:53:08;5.68;;;5.07;;
10947;SDS011;5526;42.070;24.752;2023-03-01T07:55:35;5.30;;;4.55;;
10947;SDS011;5526;42.070;24.752;2023-03-01T07:58:03;6.03;;;5.18;;
10947;SDS011;5526;42.070;24.752;2023-03-01T08:00:31;5.03;;;4.53;;
10947;SDS011;5526;42.070;24.752;2023-03-01T08:02:58;5.13;;;4.72;;
10947;SDS011;5526;42.070;24.752;2023-03-01T08:05:26;3.92;;;3.65;;
10947;SDS011;5526;42.070;24.752;2023-03-01T08:07:53;4.18;;;3.78;;
10947;SDS011;5526;42.070;24.752;2023-03-01T08:10:20;4.20;;;3.90;;
10947;SDS011;5526;42.070;24.752;2023-03-01T08:12:47;3.80;;;3.50;;
10947;SDS011;5526;42.070;24.752;2023-03-01T08:15:17;3.95;;;3.65;;
10947;SDS011;5526;42.070;24.752;2023-03-01T08:17:45;3.30;;;3.10;;
10947;SDS011;5526;42.070;24.752;2023-03-01T08:20:14;2.28;;;2.10;;
10947;SDS011;5526;42.070;24.752;2023-03-01T08:22:42;2.30;;;2.20;;
10947;SDS011;5526;42.070;24.752;2023-03-01T08:25:09;2.47;;;1.80;;
10947;SDS011;5526;42.070;24.752;2023-03-01T08:27:36;1.70;;;1.70;;
10947;SDS011;5526;42.070;24.752;2023-03-01T08:30:03;1.75;;;1.65;;
10947;SDS011;5526;42.070;24.752;2023-03-01T08:32:34;2.15;;;1.88;;
10947;SDS011;5526;42.070;24.752;2023-03-01T08:35:04;1.40;;;1.40;;
10947;SDS011;5526;42.070;24.752;2023-03-01T08:37:32;2.75;;;1.25;;
10947;SDS011;5526;42.070;24.752;2023-03-01T08:39:59;1.70;;;1.60;;
10947;SDS011;5526;42.070;24.752;2023-03-01T08:42:26;1.67;;;1.58;;
10947;SDS011;5526;42.070;24.752;2023-03-01T08:44:53;1.70;;;1.60;;
10947;SDS011;5526;42.070;24.752;2023-03-01T08:47:22;2.15;;;2.05;;
10947;SDS011;5526;42.070;24.752;2023-03-01T08:49:49;1.30;;;1.30;;
10947;SDS011;5526;42.070;24.752;2023-03-01T08:52:17;2.00;;;1.90;;
10947;SDS011;5526;42.070;24.752;2023-03-01T08:54:46;2.45;;;2.35;;
10947;SDS011;5526;42.070;24.752;2023-03-01T08:57:13;2.03;;;1.90;;
10947;SDS011;5526;42.070;24.752;2023-03-01T08:59:40;2.08;;;1.98;;
10947;SDS011;5526;42.070;24.752;2023-03-01T09:02:10;1.73;;;1.58;;
10947;SDS011;5526;42.070;24.752;2023-03-01T09:04:39;3.20;;;1.50;;
10947;SDS011;5526;42.070;24.752;2023-03-01T09:07:06;2.53;;;1.38;;
10947;SDS011;5526;42.070;24.752;2023-03-01T09:09:35;1.70;;;1.60;;
10947;SDS011;5526;42.070;24.752;2023-03-01T09:12:02;1.60;;;1.50;;
10947;SDS011;5526;42.070;24.752;2023-03-01T09:14:30;2.42;;;2.22;;
10947;SDS011;5526;42.070;24.752;2023-03-01T09:16:57;2.75;;;1.83;;
10947;SDS011;5526;42.070;24.752;2023-03-01T09:19:28;1.73;;;1.70;;
10947;SDS011;5526;42.070;24.752;2023-03-01T09:21:55;1.88;;;1.77;;
10947;SDS011;5526;42.070;24.752;2023-03-01T09:24:23;2.05;;;1.90;;
10947;SDS011;5526;42.070;24.752;2023-03-01T09:26:53;2.85;;;2.65;;
10947;SDS011;5526;42.070;24.752;2023-03-01T09:29:21;2.00;;;1.90;;
10947;SDS011;5526;42.070;24.752;2023-03-01T09:31:49;2.40;;;2.20;;
10947;SDS011;5526;42.070;24.752;2023-03-01T09:34:16;1.75;;;1.65;;
10947;SDS011;5526;42.070;24.752;2023-03-01T09:36:48;2.45;;;1.50;;
10947;SDS011;5526;42.070;24.752;2023-03-01T09:39:15;1.42;;;1.40;;
10947;SDS011;5526;42.070;24.752;2023-03-01T09:41:48;1.70;;;1.60;;
10947;SDS011;5526;42.070;24.752;2023-03-01T09:44:24;1.42;;;1.30;;
10947;SDS011;5526;42.070;24.752;2023-03-01T09:46:56;1.63;;;1.52;;
10947;SDS011;5526;42.070;24.752;2023-03-01T09:49:24;3.65;;;1.77;;
10947;SDS011;5526;42.070;24.752;2023-03-01T09:51:57;2.33;;;2.20;;
10947;SDS011;5526;42.070;24.752;2023-03-01T09:54:27;2.92;;;2.35;;
10947;SDS011;5526;42.070;24.752;2023-03-01T09:56:59;3.40;;;3.20;;
10947;SDS011;5526;42.070;24.752;2023-03-01T09:59:36;2.88;;;2.75;;
10947;SDS011;5526;42.070;24.752;2023-03-01T10:02:23;2.40;;;2.03;;
10947;SDS011;5526;42.070;24.752;2023-03-01T10:04:58;3.35;;;3.05;;
10947;SDS011;5526;42.070;24.752;2023-03-01T10:07:32;4.13;;;3.08;;
10947;SDS011;5526;42.070;24.752;2023-03-01T10:10:14;2.80;;;2.60;;
10947;SDS011;5526;42.070;24.752;2023-03-01T10:12:52;3.80;;;3.50;;
10947;SDS011;5526;42.070;24.752;2023-03-01T10:15:25;4.25;;;3.95;;
10947;SDS011;5526;42.070;24.752;2023-03-01T10:18:02;3.58;;;3.28;;
10947;SDS011;5526;42.070;24.752;2023-03-01T10:20:40;3.85;;;3.45;;
10947;SDS011;5526;42.070;24.752;2023-03-01T10:23:13;3.28;;;2.97;;
10947;SDS011;5526;42.070;24.752;2023-03-01T10:25:44;4.13;;;3.42;;
10947;SDS011;5526;42.070;24.752;2023-03-01T10:28:20;3.63;;;3.42;;
10947;SDS011;5526;42.070;24.752;2023-03-01T10:30:53;3.13;;;2.90;;
10947;SDS011;5526;42.070;24.752;2023-03-01T10:33:21;3.75;;;3.55;;
10947;SDS011;5526;42.070;24.752;2023-03-01T10:35:50;3.80;;;2.90;;
10947;SDS011;5526;42.070;24.752;2023-03-01T10:38:18;3.22;;;3.03;;
10947;SDS011;5526;42.070;24.752;2023-03-01T10:40:50;4.10;;;3.20;;
10947;SDS011;5526;42.070;24.752;2023-03-01T10:43:19;3.50;;;3.20;;
10947;SDS011;5526;42.070;24.752;2023-03-01T10:45:48;3.40;;;3.20;;
10947;SDS011;5526;42.070;24.752;2023-03-01T10:48:17;2.85;;;2.65;;
10947;SDS011;5526;42.070;24.752;2023-03-01T10:50:49;3.15;;;2.92;;
10947;SDS011;5526;42.070;24.752;2023-03-01T10:53:21;2.60;;;2.42;;
10947;SDS011;5526;42.070;24.752;2023-03-01T10:55:58;2.20;;;2.10;;
10947;SDS011;5526;42.070;24.752;2023-03-01T10:58:27;3.15;;;2.88;;
10947;SDS011;5526;42.070;24.752;2023-03-01T11:00:57;4.18;;;3.83;;
10947;SDS011;5526;42.070;24.752;2023-03-01T11:03:27;3.67;;;3.17;;
10947;SDS011;5526;42.070;24.752;2023-03-01T11:05:58;3.40;;;2.88;;
10947;SDS011;5526;42.070;24.752;2023-03-01T11:08:37;3.95;;;2.92;;
10947;SDS011;5526;42.070;24.752;2023-03-01T11:11:09;3.42;;;2.45;;
10947;SDS011;5526;42.070;24.752;2023-03-01T11:13:47;2.55;;;2.25;;
10947;SDS011;5526;42.070;24.752;2023-03-01T11:16:22;2.45;;;2.25;;
10947;SDS011;5526;42.070;24.752;2023-03-01T11:19:00;1.65;;;1.55;;
10947;SDS011;5526;42.070;24.752;2023-03-01T11:21:40;2.60;;;2.40;;
10947;SDS011;5526;42.070;24.752;2023-03-01T11:24:12;3.83;;;2.57;;
10947;SDS011;5526;42.070;24.752;2023-03-01T11:26:43;3.00;;;2.80;;
10947;SDS011;5526;42.070;24.752;2023-03-01T11:29:16;3.40;;;3.10;;
10947;SDS011;5526;42.070;24.752;2023-03-01T11:31:52;3.70;;;3.40;;
10947;SDS011;5526;42.070;24.752;2023-03-01T11:34:23;3.90;;;3.60;;
10947;SDS011;5526;42.070;24.752;2023-03-01T11:37:01;4.18;;;3.28;;
10947;SDS011;5526;42.070;24.752;2023-03-01T11:39:37;3.83;;;3.17;;
10947;SDS011;5526;42.070;24.752;2023-03-01T11:42:10;2.95;;;2.67;;
10947;SDS011;5526;42.070;24.752;2023-03-01T11:44:41;3.00;;;2.80;;
10947;SDS011;5526;42.070;24.752;2023-03-01T11:47:15;2.50;;;2.40;;
10947;SDS011;5526;42.070;24.752;2023-03-01T11:50:12;2.30;;;2.20;;
10947;SDS011;5526;42.070;24.752;2023-03-01T11:52:48;2.13;;;2.03;;
10947;SDS011;5526;42.070;24.752;2023-03-01T11:55:29;2.55;;;2.40;;
10947;SDS011;5526;42.070;24.752;2023-03-01T11:58:10;2.97;;;2.70;;
10947;SDS011;5526;42.070;24.752;2023-03-01T12:06:45;3.55;;;3.35;;
10947;SDS011;5526;42.070;24.752;2023-03-01T12:09:22;2.50;;;2.40;;
10947;SDS011;5526;42.070;24.752;2023-03-01T12:12:09;2.45;;;2.33;;
10947;SDS011;5526;42.070;24.752;2023-03-01T12:15:05;2.08;;;1.98;;
10947;SDS011;5526;42.070;24.752;2023-03-01T12:18:05;2.00;;;1.90;;
10947;SDS011;5526;42.070;24.752;2023-03-01T12:20:46;2.40;;;2.30;;
10947;SDS011;5526;42.070;24.752;2023-03-01T12:23:29;2.80;;;2.60;;
10947;SDS011;5526;42.070;24.752;2023-03-01T12:26:13;3.00;;;2.80;;
10947;SDS011;5526;42.070;24.752;2023-03-01T12:32:00;3.10;;;2.95;;
10947;SDS011;5526;42.070;24.752;2023-03-01T12:34:46;2.95;;;2.78;;
10947;SDS011;5526;42.070;24.752;2023-03-01T12:37:34;3.03;;;2.83;;
10947;SDS011;5526;42.070;24.752;2023-03-01T12:43:28;3.20;;;2.97;;
10947;SDS011;5526;42.070;24.752;2023-03-01T12:46:14;3.38;;;3.17;;
10947;SDS011;5526;42.070;24.752;2023-03-01T12:48:49;2.88;;;2.53;;
10947;SDS011;5526;42.070;24.752;2023-03-01T12:51:24;2.55;;;2.38;;
10947;SDS011;5526;42.070;24.752;2023-03-01T12:53:57;2.95;;;2.75;;
10947;SDS011;5526;42.070;24.752;2023-03-01T12:56:28;3.35;;;3.15;;
10947;SDS011;5526;42.070;24.752;2023-03-01T12:59:01;3.85;;;3.60;;
10947;SDS011;5526;42.070;24.752;2023-03-01T13:01:40;3.78;;;3.42;;
10947;SDS011;5526;42.070;24.752;2023-03-01T13:04:20;3.60;;;3.40;;
10947;SDS011;5526;42.070;24.752;2023-03-01T13:07:02;3.53;;;3.20;;
10947;SDS011;5526;42.070;24.752;2023-03-01T13:09:38;3.10;;;2.38;;
10947;SDS011;5526;42.070;24.752;2023-03-01T13:15:32;3.00;;;2.80;;
10947;SDS011;5526;42.070;24.752;2023-03-01T13:18:01;3.17;;;2.97;;
10947;SDS011;5526;42.070;24.752;2023-03-01T13:20:31;3.05;;;2.85;;
10947;SDS011;5526;42.070;24.752;2023-03-01T13:23:13;2.88;;;2.67;;
10947;SDS011;5526;42.070;24.752;2023-03-01T13:28:47;3.47;;;2.40;;
10947;SDS011;5526;42.070;24.752;2023-03-01T13:34:46;3.08;;;2.88;;
10947;SDS011;5526;42.070;24.752;2023-03-01T13:37:34;3.80;;;3.30;;
10947;SDS011;5526;42.070;24.752;2023-03-01T13:45:55;3.10;;;2.90;;
10947;SDS011;5526;42.070;24.752;2023-03-01T13:48:24;2.95;;;2.85;;
10947;SDS011;5526;42.070;24.752;2023-03-01T13:50:54;3.33;;;3.13;;
10947;SDS011;5526;42.070;24.752;2023-03-01T13:53:26;2.78;;;2.58;;
10947;SDS011;5526;42.070;24.752;2023-03-01T13:55:58;3.90;;;3.60;;
10947;SDS011;5526;42.070;24.752;2023-03-01T13:58:29;3.50;;;3.30;;
10947;SDS011;5526;42.070;24.752;2023-03-01T14:00:59;3.72;;;3.08;;
10947;SDS011;5526;42.070;24.752;2023-03-01T14:03:28;2.70;;;2.58;;
10947;SDS011;5526;42.070;24.752;2023-03-01T14:05:58;2.35;;;2.25;;
10947;SDS011;5526;42.070;24.752;2023-03-01T14:08:35;3.22;;;2.92;;
10947;SDS011;5526;42.070;24.752;2023-03-01T14:11:08;3.97;;;3.50;;
10947;SDS011;5526;42.070;24.752;2023-03-01T14:13:53;3.35;;;3.15;;
10947;SDS011;5526;42.070;24.752;2023-03-01T14:16:35;3.63;;;3.33;;
10947;SDS011;5526;42.070;24.752;2023-03-01T14:19:16;4.38;;;3.60;;
10947;SDS011;5526;42.070;24.752;2023-03-01T14:21:46;3.40;;;3.20;;
10947;SDS011;5526;42.070;24.752;2023-03-01T14:24:16;3.72;;;3.53;;
10947;SDS011;5526;42.070;24.752;2023-03-01T14:26:45;4.40;;;4.00;;
10947;SDS011;5526;42.070;24.752;2023-03-01T14:29:25;5.00;;;4.60;;
10947;SDS011;5526;42.070;24.752;2023-03-01T14:31:53;4.68;;;4.13;;
10947;SDS011;5526;42.070;24.752;2023-03-01T14:34:23;4.57;;;4.28;;
10947;SDS011;5526;42.070;24.752;2023-03-01T14:36:50;4.18;;;3.92;;
10947;SDS011;5526;42.070;24.752;2023-03-01T14:39:18;4.28;;;3.97;;
10947;SDS011;5526;42.070;24.752;2023-03-01T14:41:50;4.53;;;4.13;;
10947;SDS011;5526;42.070;24.752;2023-03-01T14:44:19;5.68;;;4.60;;
10947;SDS011;5526;42.070;24.752;2023-03-01T14:46:51;4.93;;;4.53;;
10947;SDS011;5526;42.070;24.752;2023-03-01T14:49:22;4.57;;;4.28;;
10947;SDS011;5526;42.070;24.752;2023-03-01T14:51:52;4.60;;;4.20;;
10947;SDS011;5526;42.070;24.752;2023-03-01T14:54:23;4.60;;;4.30;;
10947;SDS011;5526;42.070;24.752;2023-03-01T14:56:52;4.10;;;3.80;;
10947;SDS011;5526;42.070;24.752;2023-03-01T14:59:21;4.25;;;3.85;;
10947;SDS011;5526;42.070;24.752;2023-03-01T15:01:49;4.45;;;4.05;;
10947;SDS011;5526;42.070;24.752;2023-03-01T15:04:17;4.15;;;3.83;;
10947;SDS011;5526;42.070;24.752;2023-03-01T15:06:47;4.63;;;4.22;;
10947;SDS011;5526;42.070;24.752;2023-03-01T15:09:17;4.43;;;4.13;;
10947;SDS011;5526;42.070;24.752;2023-03-01T15:11:45;4.20;;;3.90;;
10947;SDS011;5526;42.070;24.752;2023-03-01T15:17:20;4.45;;;4.05;;
10947;SDS011;5526;42.070;24.752;2023-03-01T15:19:54;5.07;;;4.10;;
10947;SDS011;5526;42.070;24.752;2023-03-01T15:22:24;3.97;;;3.72;;
10947;SDS011;5526;42.070;24.752;2023-03-01T15:24:53;4.20;;;3.90;;
10947;SDS011;5526;42.070;24.752;2023-03-01T15:27:21;3.78;;;3.42;;
10947;SDS011;5526;42.070;24.752;2023-03-01T15:29:50;3.60;;;3.40;;
10947;SDS011;5526;42.070;24.752;2023-03-01T15:32:24;4.57;;;4.28;;
10947;SDS011;5526;42.070;24.752;2023-03-01T15:34:53;4.32;;;3.92;;
10947;SDS011;5526;42.070;24.752;2023-03-01T15:37:39;4.60;;;4.30;;
10947;SDS011;5526;42.070;24.752;2023-03-01T15:40:20;4.03;;;3.70;;
10947;SDS011;5526;42.070;24.752;2023-03-01T15:42:56;4.30;;;3.90;;
10947;SDS011;5526;42.070;24.752;2023-03-01T15:45:24;4.10;;;3.70;;